sensor_id;sensor_type;location;lat;lon;timestamp;P1;durP1;ratioP1;P2;durP2;ratioP2
5776;SDS011;2914;42.668;23.346;2022-11-21T00:02:03;14.10;;;7.80;;
5776;SDS011;2914;42.668;23.346;2022-11-21T00:04:40;11.40;;;7.30;;
5776;SDS011;2914;42.668;23.346;2022-11-21T00:07:09;18.80;;;8.47;;
5776;SDS011;2914;42.668;23.346;2022-11-21T00:09:39;15.00;;;8.50;;
5776;SDS011;2914;42.668;23.346;2022-11-21T00:12:08;10.90;;;7.57;;
5776;SDS011;2914;42.668;23.346;2022-11-21T00:14:37;17.27;;;8.60;;
5776;SDS011;2914;42.668;23.346;2022-11-21T00:17:06;9.17;;;6.80;;
5776;SDS011;2914;42.668;23.346;2022-11-21T00:19:34;7.77;;;6.10;;
5776;SDS011;2914;42.668;23.346;2022-11-21T00:22:04;12.40;;;7.07;;
5776;SDS011;2914;42.668;23.346;2022-11-21T00:24:33;12.50;;;7.20;;
5776;SDS011;2914;42.668;23.346;2022-11-21T00:27:02;16.20;;;7.53;;
5776;SDS011;2914;42.668;23.346;2022-11-21T00:29:31;18.17;;;7.20;;
5776;SDS011;2914;42.668;23.346;2022-11-21T00:32:00;9.10;;;6.00;;
5776;SDS011;2914;42.668;23.346;2022-11-21T00:34:31;5.47;;;4.47;;
5776;SDS011;2914;42.668;23.346;2022-11-21T00:37:00;9.10;;;4.57;;
5776;SDS011;2914;42.668;23.346;2022-11-21T00:39:30;11.30;;;5.60;;
5776;SDS011;2914;42.668;23.346;2022-11-21T00:41:59;7.33;;;5.10;;
5776;SDS011;2914;42.668;23.346;2022-11-21T00:44:28;12.87;;;5.47;;
5776;SDS011;2914;42.668;23.346;2022-11-21T00:46:57;6.53;;;3.63;;
5776;SDS011;2914;42.668;23.346;2022-11-21T00:49:28;26.53;;;7.30;;
5776;SDS011;2914;42.668;23.346;2022-11-21T00:52:06;6.00;;;5.30;;
5776;SDS011;2914;42.668;23.346;2022-11-21T00:54:35;12.00;;;5.60;;
5776;SDS011;2914;42.668;23.346;2022-11-21T00:57:04;7.63;;;5.70;;
5776;SDS011;2914;42.668;23.346;2022-11-21T00:59:33;8.10;;;5.17;;
5776;SDS011;2914;42.668;23.346;2022-11-21T01:02:02;5.67;;;4.60;;
5776;SDS011;2914;42.668;23.346;2022-11-21T01:04:32;7.80;;;5.23;;
5776;SDS011;2914;42.668;23.346;2022-11-21T01:07:04;12.17;;;5.67;;
5776;SDS011;2914;42.668;23.346;2022-11-21T01:09:33;11.40;;;5.77;;
5776;SDS011;2914;42.668;23.346;2022-11-21T01:12:03;9.77;;;6.27;;
5776;SDS011;2914;42.668;23.346;2022-11-21T01:14:33;10.60;;;5.63;;
5776;SDS011;2914;42.668;23.346;2022-11-21T01:17:14;9.50;;;6.97;;
5776;SDS011;2914;42.668;23.346;2022-11-21T01:19:43;6.00;;;5.07;;
5776;SDS011;2914;42.668;23.346;2022-11-21T01:22:12;8.87;;;6.50;;
5776;SDS011;2914;42.668;23.346;2022-11-21T01:24:41;20.83;;;8.20;;
5776;SDS011;2914;42.668;23.346;2022-11-21T01:27:10;5.87;;;4.10;;
5776;SDS011;2914;42.668;23.346;2022-11-21T01:29:39;6.20;;;2.90;;
5776;SDS011;2914;42.668;23.346;2022-11-21T01:32:09;10.90;;;3.60;;
5776;SDS011;2914;42.668;23.346;2022-11-21T01:34:38;13.97;;;6.63;;
5776;SDS011;2914;42.668;23.346;2022-11-21T01:37:07;10.77;;;6.20;;
5776;SDS011;2914;42.668;23.346;2022-11-21T01:39:36;9.77;;;6.40;;
5776;SDS011;2914;42.668;23.346;2022-11-21T01:42:05;8.53;;;5.90;;
5776;SDS011;2914;42.668;23.346;2022-11-21T01:44:47;8.87;;;6.50;;
5776;SDS011;2914;42.668;23.346;2022-11-21T01:47:18;9.60;;;5.90;;
5776;SDS011;2914;42.668;23.346;2022-11-21T01:49:48;11.87;;;6.47;;
5776;SDS011;2914;42.668;23.346;2022-11-21T01:52:20;11.50;;;7.17;;
5776;SDS011;2914;42.668;23.346;2022-11-21T01:54:52;16.17;;;7.83;;
5776;SDS011;2914;42.668;23.346;2022-11-21T01:57:24;28.03;;;8.13;;
5776;SDS011;2914;42.668;23.346;2022-11-21T01:59:57;8.67;;;7.00;;
5776;SDS011;2914;42.668;23.346;2022-11-21T02:02:28;10.10;;;7.03;;
5776;SDS011;2914;42.668;23.346;2022-11-21T02:05:08;11.73;;;7.70;;
5776;SDS011;2914;42.668;23.346;2022-11-21T02:07:39;11.13;;;7.77;;
5776;SDS011;2914;42.668;23.346;2022-11-21T02:10:11;11.63;;;7.30;;
5776;SDS011;2914;42.668;23.346;2022-11-21T02:12:42;19.33;;;9.57;;
5776;SDS011;2914;42.668;23.346;2022-11-21T02:15:13;12.07;;;7.60;;
5776;SDS011;2914;42.668;23.346;2022-11-21T02:17:43;11.90;;;7.07;;
5776;SDS011;2914;42.668;23.346;2022-11-21T02:20:13;10.40;;;6.60;;
5776;SDS011;2914;42.668;23.346;2022-11-21T02:22:44;17.77;;;8.83;;
5776;SDS011;2914;42.668;23.346;2022-11-21T02:25:16;9.13;;;6.80;;
5776;SDS011;2914;42.668;23.346;2022-11-21T02:27:48;12.20;;;7.30;;
5776;SDS011;2914;42.668;23.346;2022-11-21T02:30:19;11.70;;;6.53;;
5776;SDS011;2914;42.668;23.346;2022-11-21T02:32:48;16.60;;;6.77;;
5776;SDS011;2914;42.668;23.346;2022-11-21T02:35:17;9.93;;;6.20;;
5776;SDS011;2914;42.668;23.346;2022-11-21T02:37:48;17.73;;;8.07;;
5776;SDS011;2914;42.668;23.346;2022-11-21T02:40:27;14.53;;;7.43;;
5776;SDS011;2914;42.668;23.346;2022-11-21T02:43:00;20.87;;;7.50;;
5776;SDS011;2914;42.668;23.346;2022-11-21T02:45:31;11.80;;;6.23;;
5776;SDS011;2914;42.668;23.346;2022-11-21T02:48:03;9.60;;;5.70;;
5776;SDS011;2914;42.668;23.346;2022-11-21T02:50:33;18.73;;;5.57;;
5776;SDS011;2914;42.668;23.346;2022-11-21T02:53:04;9.27;;;5.60;;
5776;SDS011;2914;42.668;23.346;2022-11-21T02:55:37;14.73;;;7.40;;
5776;SDS011;2914;42.668;23.346;2022-11-21T02:58:07;10.80;;;6.47;;
5776;SDS011;2914;42.668;23.346;2022-11-21T03:00:36;11.37;;;5.90;;
5776;SDS011;2914;42.668;23.346;2022-11-21T03:03:07;10.17;;;5.80;;
5776;SDS011;2914;42.668;23.346;2022-11-21T03:05:36;12.93;;;5.90;;
5776;SDS011;2914;42.668;23.346;2022-11-21T03:08:07;7.07;;;5.17;;
5776;SDS011;2914;42.668;23.346;2022-11-21T03:10:38;11.63;;;5.63;;
5776;SDS011;2914;42.668;23.346;2022-11-21T03:13:07;9.23;;;4.37;;
5776;SDS011;2914;42.668;23.346;2022-11-21T03:15:36;9.10;;;4.73;;
5776;SDS011;2914;42.668;23.346;2022-11-21T03:18:05;7.57;;;4.33;;
5776;SDS011;2914;42.668;23.346;2022-11-21T03:20:34;7.63;;;5.10;;
5776;SDS011;2914;42.668;23.346;2022-11-21T03:23:04;8.73;;;5.70;;
5776;SDS011;2914;42.668;23.346;2022-11-21T03:25:33;7.53;;;5.10;;
5776;SDS011;2914;42.668;23.346;2022-11-21T03:28:03;8.50;;;4.00;;
5776;SDS011;2914;42.668;23.346;2022-11-21T03:30:32;6.50;;;4.40;;
5776;SDS011;2914;42.668;23.346;2022-11-21T03:33:01;12.53;;;4.70;;
5776;SDS011;2914;42.668;23.346;2022-11-21T03:35:30;6.47;;;4.60;;
5776;SDS011;2914;42.668;23.346;2022-11-21T03:37:59;7.90;;;4.77;;
5776;SDS011;2914;42.668;23.346;2022-11-21T03:40:28;7.93;;;3.53;;
5776;SDS011;2914;42.668;23.346;2022-11-21T03:43:02;4.33;;;2.83;;
5776;SDS011;2914;42.668;23.346;2022-11-21T03:45:32;4.23;;;3.20;;
5776;SDS011;2914;42.668;23.346;2022-11-21T03:48:02;5.70;;;4.03;;
5776;SDS011;2914;42.668;23.346;2022-11-21T03:50:31;9.30;;;4.57;;
5776;SDS011;2914;42.668;23.346;2022-11-21T03:53:03;8.77;;;4.47;;
5776;SDS011;2914;42.668;23.346;2022-11-21T03:55:32;9.73;;;4.17;;
5776;SDS011;2914;42.668;23.346;2022-11-21T03:58:01;9.83;;;3.67;;
5776;SDS011;2914;42.668;23.346;2022-11-21T04:00:53;6.17;;;3.13;;
5776;SDS011;2914;42.668;23.346;2022-11-21T04:03:22;5.40;;;2.47;;
5776;SDS011;2914;42.668;23.346;2022-11-21T04:05:52;6.30;;;2.70;;
5776;SDS011;2914;42.668;23.346;2022-11-21T04:08:21;2.97;;;2.77;;
5776;SDS011;2914;42.668;23.346;2022-11-21T04:10:51;3.30;;;3.00;;
5776;SDS011;2914;42.668;23.346;2022-11-21T04:13:21;3.00;;;2.57;;
5776;SDS011;2914;42.668;23.346;2022-11-21T04:15:50;6.00;;;3.07;;
5776;SDS011;2914;42.668;23.346;2022-11-21T04:18:19;3.57;;;2.77;;
5776;SDS011;2914;42.668;23.346;2022-11-21T04:20:48;6.83;;;2.80;;
5776;SDS011;2914;42.668;23.346;2022-11-21T04:23:23;7.70;;;2.60;;
5776;SDS011;2914;42.668;23.346;2022-11-21T04:25:52;3.63;;;3.20;;
5776;SDS011;2914;42.668;23.346;2022-11-21T04:28:22;5.33;;;3.30;;
5776;SDS011;2914;42.668;23.346;2022-11-21T04:30:52;7.17;;;4.03;;
5776;SDS011;2914;42.668;23.346;2022-11-21T04:33:21;4.07;;;2.90;;
5776;SDS011;2914;42.668;23.346;2022-11-21T04:35:52;5.60;;;3.30;;
5776;SDS011;2914;42.668;23.346;2022-11-21T04:38:21;15.13;;;2.97;;
5776;SDS011;2914;42.668;23.346;2022-11-21T04:40:51;7.00;;;3.63;;
5776;SDS011;2914;42.668;23.346;2022-11-21T04:43:20;12.03;;;3.37;;
5776;SDS011;2914;42.668;23.346;2022-11-21T04:45:48;8.10;;;3.90;;
5776;SDS011;2914;42.668;23.346;2022-11-21T04:48:17;9.00;;;4.30;;
5776;SDS011;2914;42.668;23.346;2022-11-21T04:50:47;10.53;;;4.13;;
5776;SDS011;2914;42.668;23.346;2022-11-21T04:53:16;6.23;;;3.90;;
5776;SDS011;2914;42.668;23.346;2022-11-21T04:55:48;10.00;;;4.10;;
5776;SDS011;2914;42.668;23.346;2022-11-21T04:58:17;8.43;;;3.77;;
5776;SDS011;2914;42.668;23.346;2022-11-21T05:00:46;10.20;;;4.63;;
5776;SDS011;2914;42.668;23.346;2022-11-21T05:05:51;20.37;;;5.07;;
5776;SDS011;2914;42.668;23.346;2022-11-21T05:08:21;4.47;;;3.27;;
5776;SDS011;2914;42.668;23.346;2022-11-21T05:11:05;7.60;;;3.47;;
5776;SDS011;2914;42.668;23.346;2022-11-21T05:13:52;5.20;;;3.50;;
5776;SDS011;2914;42.668;23.346;2022-11-21T05:16:21;4.67;;;3.20;;
5776;SDS011;2914;42.668;23.346;2022-11-21T05:18:59;5.60;;;3.40;;
5776;SDS011;2914;42.668;23.346;2022-11-21T05:21:28;4.70;;;2.90;;
5776;SDS011;2914;42.668;23.346;2022-11-21T05:24:07;5.30;;;2.80;;
5776;SDS011;2914;42.668;23.346;2022-11-21T05:26:36;6.57;;;3.50;;
5776;SDS011;2914;42.668;23.346;2022-11-21T05:29:05;7.13;;;3.57;;
5776;SDS011;2914;42.668;23.346;2022-11-21T05:31:42;10.30;;;3.27;;
5776;SDS011;2914;42.668;23.346;2022-11-21T05:34:11;5.60;;;3.10;;
5776;SDS011;2914;42.668;23.346;2022-11-21T05:36:41;14.93;;;5.20;;
5776;SDS011;2914;42.668;23.346;2022-11-21T05:39:10;7.13;;;2.47;;
5776;SDS011;2914;42.668;23.346;2022-11-21T05:41:40;7.57;;;2.70;;
5776;SDS011;2914;42.668;23.346;2022-11-21T05:44:09;8.93;;;3.20;;
5776;SDS011;2914;42.668;23.346;2022-11-21T05:46:38;9.30;;;3.50;;
5776;SDS011;2914;42.668;23.346;2022-11-21T05:49:08;4.63;;;2.40;;
5776;SDS011;2914;42.668;23.346;2022-11-21T05:51:37;5.53;;;2.27;;
5776;SDS011;2914;42.668;23.346;2022-11-21T05:54:06;5.03;;;2.43;;
5776;SDS011;2914;42.668;23.346;2022-11-21T05:56:39;6.80;;;2.17;;
5776;SDS011;2914;42.668;23.346;2022-11-21T05:59:08;6.30;;;2.00;;
5776;SDS011;2914;42.668;23.346;2022-11-21T06:01:38;6.70;;;2.60;;
5776;SDS011;2914;42.668;23.346;2022-11-21T06:04:16;5.60;;;1.90;;
5776;SDS011;2914;42.668;23.346;2022-11-21T06:06:45;9.93;;;2.93;;
5776;SDS011;2914;42.668;23.346;2022-11-21T06:09:14;2.47;;;1.90;;
5776;SDS011;2914;42.668;23.346;2022-11-21T06:11:43;1.90;;;1.70;;
5776;SDS011;2914;42.668;23.346;2022-11-21T06:14:12;8.23;;;2.67;;
5776;SDS011;2914;42.668;23.346;2022-11-21T06:16:42;9.73;;;3.97;;
5776;SDS011;2914;42.668;23.346;2022-11-21T06:19:11;3.47;;;2.20;;
5776;SDS011;2914;42.668;23.346;2022-11-21T06:21:40;9.90;;;3.70;;
5776;SDS011;2914;42.668;23.346;2022-11-21T06:24:10;5.00;;;1.80;;
5776;SDS011;2914;42.668;23.346;2022-11-21T06:26:39;3.00;;;1.53;;
5776;SDS011;2914;42.668;23.346;2022-11-21T06:29:10;3.67;;;1.80;;
5776;SDS011;2914;42.668;23.346;2022-11-21T06:31:41;5.00;;;1.93;;
5776;SDS011;2914;42.668;23.346;2022-11-21T06:34:11;7.00;;;2.40;;
5776;SDS011;2914;42.668;23.346;2022-11-21T06:36:40;3.23;;;1.33;;
5776;SDS011;2914;42.668;23.346;2022-11-21T06:39:10;2.57;;;1.80;;
5776;SDS011;2914;42.668;23.346;2022-11-21T06:41:39;7.33;;;3.60;;
5776;SDS011;2914;42.668;23.346;2022-11-21T06:44:08;7.67;;;2.70;;
5776;SDS011;2914;42.668;23.346;2022-11-21T06:46:37;5.27;;;2.50;;
5776;SDS011;2914;42.668;23.346;2022-11-21T06:49:08;5.83;;;1.80;;
5776;SDS011;2914;42.668;23.346;2022-11-21T06:51:45;3.80;;;2.60;;
5776;SDS011;2914;42.668;23.346;2022-11-21T06:54:15;2.60;;;1.60;;
5776;SDS011;2914;42.668;23.346;2022-11-21T06:56:44;7.83;;;3.30;;
5776;SDS011;2914;42.668;23.346;2022-11-21T06:59:12;2.10;;;1.90;;
5776;SDS011;2914;42.668;23.346;2022-11-21T07:01:42;1.90;;;1.57;;
5776;SDS011;2914;42.668;23.346;2022-11-21T07:04:28;1.80;;;1.70;;
5776;SDS011;2914;42.668;23.346;2022-11-21T07:06:57;2.20;;;1.67;;
5776;SDS011;2914;42.668;23.346;2022-11-21T07:09:27;1.70;;;1.60;;
5776;SDS011;2914;42.668;23.346;2022-11-21T07:11:57;2.00;;;1.60;;
5776;SDS011;2914;42.668;23.346;2022-11-21T07:14:28;5.27;;;2.93;;
5776;SDS011;2914;42.668;23.346;2022-11-21T07:17:05;6.33;;;2.97;;
5776;SDS011;2914;42.668;23.346;2022-11-21T07:19:38;4.63;;;2.47;;
5776;SDS011;2914;42.668;23.346;2022-11-21T07:22:08;3.83;;;2.30;;
5776;SDS011;2914;42.668;23.346;2022-11-21T07:27:13;4.40;;;2.40;;
5776;SDS011;2914;42.668;23.346;2022-11-21T07:29:42;4.03;;;2.17;;
5776;SDS011;2914;42.668;23.346;2022-11-21T07:32:11;2.07;;;1.80;;
5776;SDS011;2914;42.668;23.346;2022-11-21T07:34:41;11.93;;;3.90;;
5776;SDS011;2914;42.668;23.346;2022-11-21T07:37:10;8.37;;;3.03;;
5776;SDS011;2914;42.668;23.346;2022-11-21T07:39:39;1.83;;;1.50;;
5776;SDS011;2914;42.668;23.346;2022-11-21T07:42:11;5.83;;;2.57;;
5776;SDS011;2914;42.668;23.346;2022-11-21T07:44:44;16.07;;;4.30;;
5776;SDS011;2914;42.668;23.346;2022-11-21T07:47:13;8.63;;;2.63;;
5776;SDS011;2914;42.668;23.346;2022-11-21T07:49:43;3.50;;;2.30;;
5776;SDS011;2914;42.668;23.346;2022-11-21T07:52:16;6.33;;;2.47;;
5776;SDS011;2914;42.668;23.346;2022-11-21T07:54:45;12.40;;;3.50;;
5776;SDS011;2914;42.668;23.346;2022-11-21T07:57:14;12.53;;;2.37;;
5776;SDS011;2914;42.668;23.346;2022-11-21T07:59:43;13.90;;;3.23;;
5776;SDS011;2914;42.668;23.346;2022-11-21T08:02:16;5.20;;;2.10;;
5776;SDS011;2914;42.668;23.346;2022-11-21T08:04:46;12.27;;;3.07;;
5776;SDS011;2914;42.668;23.346;2022-11-21T08:07:24;4.33;;;2.57;;
5776;SDS011;2914;42.668;23.346;2022-11-21T08:09:53;7.20;;;2.80;;
5776;SDS011;2914;42.668;23.346;2022-11-21T08:12:22;4.90;;;2.27;;
5776;SDS011;2914;42.668;23.346;2022-11-21T08:14:51;7.20;;;2.93;;
5776;SDS011;2914;42.668;23.346;2022-11-21T08:17:21;3.70;;;1.87;;
5776;SDS011;2914;42.668;23.346;2022-11-21T08:19:51;9.30;;;2.73;;
5776;SDS011;2914;42.668;23.346;2022-11-21T08:22:29;5.23;;;2.40;;
5776;SDS011;2914;42.668;23.346;2022-11-21T08:25:04;2.00;;;1.80;;
5776;SDS011;2914;42.668;23.346;2022-11-21T08:27:37;2.37;;;1.73;;
5776;SDS011;2914;42.668;23.346;2022-11-21T08:30:13;6.93;;;2.80;;
5776;SDS011;2914;42.668;23.346;2022-11-21T08:32:42;6.10;;;2.10;;
5776;SDS011;2914;42.668;23.346;2022-11-21T08:35:12;5.90;;;2.50;;
5776;SDS011;2914;42.668;23.346;2022-11-21T08:37:41;17.63;;;4.83;;
5776;SDS011;2914;42.668;23.346;2022-11-21T08:42:56;8.07;;;3.40;;
5776;SDS011;2914;42.668;23.346;2022-11-21T08:45:34;2.00;;;1.90;;
5776;SDS011;2914;42.668;23.346;2022-11-21T08:48:08;2.70;;;2.50;;
5776;SDS011;2914;42.668;23.346;2022-11-21T08:50:40;4.40;;;3.30;;
5776;SDS011;2914;42.668;23.346;2022-11-21T08:53:09;3.37;;;3.07;;
5776;SDS011;2914;42.668;23.346;2022-11-21T08:55:38;6.80;;;4.30;;
5776;SDS011;2914;42.668;23.346;2022-11-21T08:58:07;4.40;;;3.80;;
5776;SDS011;2914;42.668;23.346;2022-11-21T09:00:37;6.40;;;3.20;;
5776;SDS011;2914;42.668;23.346;2022-11-21T09:03:06;2.67;;;2.47;;
5776;SDS011;2914;42.668;23.346;2022-11-21T09:08:38;2.90;;;2.30;;
5776;SDS011;2914;42.668;23.346;2022-11-21T09:11:08;2.27;;;2.07;;
5776;SDS011;2914;42.668;23.346;2022-11-21T09:13:37;6.33;;;2.40;;
5776;SDS011;2914;42.668;23.346;2022-11-21T09:16:09;2.63;;;2.43;;
5776;SDS011;2914;42.668;23.346;2022-11-21T09:22:10;2.93;;;1.87;;
5776;SDS011;2914;42.668;23.346;2022-11-21T09:24:40;1.67;;;1.57;;
5776;SDS011;2914;42.668;23.346;2022-11-21T09:27:11;6.47;;;2.63;;
5776;SDS011;2914;42.668;23.346;2022-11-21T09:29:40;5.57;;;2.83;;
5776;SDS011;2914;42.668;23.346;2022-11-21T09:32:09;2.90;;;2.30;;
5776;SDS011;2914;42.668;23.346;2022-11-21T09:34:38;5.47;;;2.93;;
5776;SDS011;2914;42.668;23.346;2022-11-21T09:37:07;11.23;;;4.27;;
5776;SDS011;2914;42.668;23.346;2022-11-21T09:39:36;6.43;;;2.83;;
5776;SDS011;2914;42.668;23.346;2022-11-21T09:42:15;8.00;;;3.10;;
5776;SDS011;2914;42.668;23.346;2022-11-21T09:44:58;13.47;;;3.97;;
5776;SDS011;2914;42.668;23.346;2022-11-21T09:47:33;16.27;;;3.87;;
5776;SDS011;2914;42.668;23.346;2022-11-21T09:50:05;8.13;;;3.10;;
5776;SDS011;2914;42.668;23.346;2022-11-21T09:52:43;5.20;;;2.33;;
5776;SDS011;2914;42.668;23.346;2022-11-21T09:55:15;15.27;;;4.80;;
5776;SDS011;2914;42.668;23.346;2022-11-21T09:57:45;8.13;;;3.10;;
5776;SDS011;2914;42.668;23.346;2022-11-21T10:00:18;5.23;;;2.50;;
5776;SDS011;2914;42.668;23.346;2022-11-21T10:02:48;10.63;;;4.00;;
5776;SDS011;2914;42.668;23.346;2022-11-21T10:05:20;11.37;;;3.90;;
5776;SDS011;2914;42.668;23.346;2022-11-21T10:07:51;9.73;;;4.10;;
5776;SDS011;2914;42.668;23.346;2022-11-21T10:10:26;9.53;;;4.00;;
5776;SDS011;2914;42.668;23.346;2022-11-21T10:13:05;12.30;;;4.10;;
5776;SDS011;2914;42.668;23.346;2022-11-21T10:15:51;19.83;;;4.87;;
5776;SDS011;2914;42.668;23.346;2022-11-21T10:18:48;14.33;;;3.33;;
5776;SDS011;2914;42.668;23.346;2022-11-21T10:21:34;9.00;;;3.83;;
5776;SDS011;2914;42.668;23.346;2022-11-21T10:24:13;6.10;;;3.50;;
5776;SDS011;2914;42.668;23.346;2022-11-21T10:26:51;10.83;;;4.53;;
5776;SDS011;2914;42.668;23.346;2022-11-21T10:29:24;10.53;;;4.10;;
5776;SDS011;2914;42.668;23.346;2022-11-21T10:31:56;7.20;;;4.23;;
5776;SDS011;2914;42.668;23.346;2022-11-21T10:34:29;10.97;;;5.20;;
5776;SDS011;2914;42.668;23.346;2022-11-21T10:37:14;9.17;;;3.73;;
5776;SDS011;2914;42.668;23.346;2022-11-21T10:39:45;12.03;;;5.73;;
5776;SDS011;2914;42.668;23.346;2022-11-21T10:42:17;4.80;;;4.23;;
5776;SDS011;2914;42.668;23.346;2022-11-21T10:44:51;12.67;;;4.53;;
5776;SDS011;2914;42.668;23.346;2022-11-21T10:47:40;10.67;;;4.67;;
5776;SDS011;2914;42.668;23.346;2022-11-21T10:50:22;6.73;;;3.53;;
5776;SDS011;2914;42.668;23.346;2022-11-21T10:52:58;10.70;;;4.60;;
5776;SDS011;2914;42.668;23.346;2022-11-21T10:55:32;10.77;;;5.00;;
5776;SDS011;2914;42.668;23.346;2022-11-21T10:58:01;11.23;;;4.30;;
5776;SDS011;2914;42.668;23.346;2022-11-21T11:00:32;9.23;;;5.10;;
5776;SDS011;2914;42.668;23.346;2022-11-21T11:03:06;11.40;;;4.77;;
5776;SDS011;2914;42.668;23.346;2022-11-21T11:05:38;10.43;;;4.47;;
5776;SDS011;2914;42.668;23.346;2022-11-21T11:08:09;20.60;;;5.90;;
5776;SDS011;2914;42.668;23.346;2022-11-21T11:10:40;8.50;;;3.90;;
5776;SDS011;2914;42.668;23.346;2022-11-21T11:13:11;6.53;;;3.73;;
5776;SDS011;2914;42.668;23.346;2022-11-21T11:16:03;12.30;;;4.80;;
5776;SDS011;2914;42.668;23.346;2022-11-21T11:18:38;16.87;;;5.87;;
5776;SDS011;2914;42.668;23.346;2022-11-21T11:21:11;5.90;;;4.30;;
5776;SDS011;2914;42.668;23.346;2022-11-21T11:23:42;9.97;;;4.30;;
5776;SDS011;2914;42.668;23.346;2022-11-21T11:26:23;12.90;;;5.07;;
5776;SDS011;2914;42.668;23.346;2022-11-21T11:28:53;13.17;;;5.17;;
5776;SDS011;2914;42.668;23.346;2022-11-21T11:31:27;11.57;;;4.83;;
5776;SDS011;2914;42.668;23.346;2022-11-21T11:34:07;5.43;;;3.87;;
5776;SDS011;2914;42.668;23.346;2022-11-21T11:36:44;13.37;;;5.50;;
5776;SDS011;2914;42.668;23.346;2022-11-21T11:39:29;6.00;;;3.70;;
5776;SDS011;2914;42.668;23.346;2022-11-21T11:45:32;6.60;;;3.50;;
5776;SDS011;2914;42.668;23.346;2022-11-21T11:48:46;9.47;;;4.60;;
5776;SDS011;2914;42.668;23.346;2022-11-21T11:51:21;5.83;;;3.70;;
5776;SDS011;2914;42.668;23.346;2022-11-21T11:53:52;7.40;;;3.80;;
5776;SDS011;2914;42.668;23.346;2022-11-21T11:56:25;12.60;;;4.70;;
5776;SDS011;2914;42.668;23.346;2022-11-21T11:58:58;9.30;;;4.50;;
5776;SDS011;2914;42.668;23.346;2022-11-21T12:01:31;11.67;;;4.57;;
5776;SDS011;2914;42.668;23.346;2022-11-21T12:04:02;14.03;;;4.40;;
5776;SDS011;2914;42.668;23.346;2022-11-21T12:06:34;8.57;;;3.73;;
5776;SDS011;2914;42.668;23.346;2022-11-21T12:09:06;8.50;;;3.93;;
5776;SDS011;2914;42.668;23.346;2022-11-21T12:11:44;20.90;;;6.40;;
5776;SDS011;2914;42.668;23.346;2022-11-21T12:14:34;12.63;;;5.10;;
5776;SDS011;2914;42.668;23.346;2022-11-21T12:17:42;16.57;;;5.17;;
5776;SDS011;2914;42.668;23.346;2022-11-21T12:20:21;6.13;;;3.90;;
5776;SDS011;2914;42.668;23.346;2022-11-21T12:22:53;10.60;;;4.57;;
5776;SDS011;2914;42.668;23.346;2022-11-21T12:25:24;11.80;;;4.40;;
5776;SDS011;2914;42.668;23.346;2022-11-21T12:27:56;3.83;;;3.17;;
5776;SDS011;2914;42.668;23.346;2022-11-21T12:30:31;5.43;;;3.67;;
5776;SDS011;2914;42.668;23.346;2022-11-21T12:33:05;5.87;;;3.93;;
5776;SDS011;2914;42.668;23.346;2022-11-21T12:35:55;17.90;;;4.13;;
5776;SDS011;2914;42.668;23.346;2022-11-21T12:38:56;13.73;;;4.20;;
5776;SDS011;2914;42.668;23.346;2022-11-21T12:41:30;6.27;;;4.20;;
5776;SDS011;2914;42.668;23.346;2022-11-21T12:44:25;4.90;;;3.20;;
5776;SDS011;2914;42.668;23.346;2022-11-21T12:47:04;6.77;;;3.43;;
5776;SDS011;2914;42.668;23.346;2022-11-21T12:49:43;5.83;;;3.50;;
5776;SDS011;2914;42.668;23.346;2022-11-21T12:52:34;13.30;;;4.10;;
5776;SDS011;2914;42.668;23.346;2022-11-21T12:55:30;7.90;;;3.97;;
5776;SDS011;2914;42.668;23.346;2022-11-21T12:58:05;7.57;;;4.13;;
5776;SDS011;2914;42.668;23.346;2022-11-21T13:00:53;15.40;;;5.17;;
5776;SDS011;2914;42.668;23.346;2022-11-21T13:03:36;8.63;;;4.20;;
5776;SDS011;2914;42.668;23.346;2022-11-21T13:06:22;10.27;;;4.73;;
5776;SDS011;2914;42.668;23.346;2022-11-21T13:08:54;11.60;;;4.77;;
5776;SDS011;2914;42.668;23.346;2022-11-21T13:11:28;6.70;;;4.17;;
5776;SDS011;2914;42.668;23.346;2022-11-21T13:14:21;9.67;;;5.10;;
5776;SDS011;2914;42.668;23.346;2022-11-21T13:16:57;16.93;;;4.90;;
5776;SDS011;2914;42.668;23.346;2022-11-21T13:19:41;5.23;;;3.80;;
5776;SDS011;2914;42.668;23.346;2022-11-21T13:25:35;10.23;;;5.47;;
5776;SDS011;2914;42.668;23.346;2022-11-21T13:28:24;7.97;;;5.10;;
5776;SDS011;2914;42.668;23.346;2022-11-21T13:30:58;7.60;;;4.63;;
5776;SDS011;2914;42.668;23.346;2022-11-21T13:33:45;9.37;;;4.80;;
5776;SDS011;2914;42.668;23.346;2022-11-21T13:36:34;15.70;;;6.10;;
5776;SDS011;2914;42.668;23.346;2022-11-21T13:42:05;6.93;;;4.33;;
5776;SDS011;2914;42.668;23.346;2022-11-21T13:44:56;14.73;;;6.13;;
5776;SDS011;2914;42.668;23.346;2022-11-21T13:47:44;8.73;;;4.93;;
5776;SDS011;2914;42.668;23.346;2022-11-21T13:50:31;5.57;;;4.57;;
5776;SDS011;2914;42.668;23.346;2022-11-21T13:53:12;7.80;;;4.70;;
5776;SDS011;2914;42.668;23.346;2022-11-21T13:55:54;11.93;;;5.67;;
5776;SDS011;2914;42.668;23.346;2022-11-21T13:58:27;8.43;;;4.77;;
5776;SDS011;2914;42.668;23.346;2022-11-21T14:01:09;12.30;;;5.93;;
5776;SDS011;2914;42.668;23.346;2022-11-21T14:03:59;9.93;;;5.13;;
5776;SDS011;2914;42.668;23.346;2022-11-21T14:06:46;12.00;;;5.30;;
5776;SDS011;2914;42.668;23.346;2022-11-21T14:10:00;5.20;;;4.67;;
5776;SDS011;2914;42.668;23.346;2022-11-21T14:12:32;5.30;;;4.80;;
5776;SDS011;2914;42.668;23.346;2022-11-21T14:15:09;4.23;;;3.93;;
5776;SDS011;2914;42.668;23.346;2022-11-21T14:17:45;7.33;;;5.30;;
5776;SDS011;2914;42.668;23.346;2022-11-21T14:20:18;6.97;;;4.83;;
5776;SDS011;2914;42.668;23.346;2022-11-21T14:22:53;9.00;;;5.47;;
5776;SDS011;2914;42.668;23.346;2022-11-21T14:25:32;7.63;;;5.50;;
5776;SDS011;2914;42.668;23.346;2022-11-21T14:28:05;10.90;;;5.20;;
5776;SDS011;2914;42.668;23.346;2022-11-21T14:30:38;9.87;;;5.70;;
5776;SDS011;2914;42.668;23.346;2022-11-21T14:33:24;5.13;;;4.73;;
5776;SDS011;2914;42.668;23.346;2022-11-21T14:35:56;7.40;;;4.70;;
5776;SDS011;2914;42.668;23.346;2022-11-21T14:38:27;5.73;;;4.90;;
5776;SDS011;2914;42.668;23.346;2022-11-21T14:44:18;9.30;;;6.20;;
5776;SDS011;2914;42.668;23.346;2022-11-21T14:46:48;8.90;;;6.47;;
5776;SDS011;2914;42.668;23.346;2022-11-21T14:49:23;11.10;;;6.90;;
5776;SDS011;2914;42.668;23.346;2022-11-21T14:52:00;4.83;;;4.10;;
5776;SDS011;2914;42.668;23.346;2022-11-21T14:54:38;6.67;;;4.47;;
5776;SDS011;2914;42.668;23.346;2022-11-21T14:57:14;5.13;;;4.60;;
5776;SDS011;2914;42.668;23.346;2022-11-21T14:59:49;17.63;;;6.63;;
5776;SDS011;2914;42.668;23.346;2022-11-21T15:02:20;10.43;;;5.33;;
5776;SDS011;2914;42.668;23.346;2022-11-21T15:04:51;13.87;;;6.00;;
5776;SDS011;2914;42.668;23.346;2022-11-21T15:07:23;9.23;;;4.67;;
5776;SDS011;2914;42.668;23.346;2022-11-21T15:09:53;13.73;;;6.27;;
5776;SDS011;2914;42.668;23.346;2022-11-21T15:12:26;11.73;;;5.73;;
5776;SDS011;2914;42.668;23.346;2022-11-21T15:15:22;6.60;;;4.73;;
5776;SDS011;2914;42.668;23.346;2022-11-21T15:17:39;8.73;;;5.00;;
5776;SDS011;2914;42.668;23.346;2022-11-21T15:20:17;10.73;;;6.40;;
5776;SDS011;2914;42.668;23.346;2022-11-21T15:22:47;17.13;;;6.10;;
5776;SDS011;2914;42.668;23.346;2022-11-21T15:25:18;12.77;;;5.37;;
5776;SDS011;2914;42.668;23.346;2022-11-21T15:28:33;14.23;;;5.67;;
5776;SDS011;2914;42.668;23.346;2022-11-21T15:31:17;5.50;;;5.00;;
5776;SDS011;2914;42.668;23.346;2022-11-21T15:33:55;6.00;;;5.40;;
5776;SDS011;2914;42.668;23.346;2022-11-21T15:36:26;5.93;;;5.27;;
5776;SDS011;2914;42.668;23.346;2022-11-21T15:39:00;7.83;;;5.67;;
5776;SDS011;2914;42.668;23.346;2022-11-21T15:41:30;10.83;;;5.63;;
5776;SDS011;2914;42.668;23.346;2022-11-21T15:44:19;7.97;;;5.70;;
5776;SDS011;2914;42.668;23.346;2022-11-21T15:46:52;12.00;;;6.53;;
5776;SDS011;2914;42.668;23.346;2022-11-21T15:49:21;5.53;;;5.03;;
5776;SDS011;2914;42.668;23.346;2022-11-21T15:51:50;12.40;;;6.20;;
5776;SDS011;2914;42.668;23.346;2022-11-21T15:54:21;27.97;;;7.83;;
5776;SDS011;2914;42.668;23.346;2022-11-21T15:56:50;9.20;;;5.60;;
5776;SDS011;2914;42.668;23.346;2022-11-21T15:59:19;9.80;;;4.97;;
5776;SDS011;2914;42.668;23.346;2022-11-21T16:01:48;10.43;;;5.53;;